createdAt,value
2024-03-07T00:02:08.363Z,101381.57
2024-03-07T00:07:10.988Z,101378.52
2024-03-07T00:12:13.608Z,101375.73
2024-03-07T00:17:16.194Z,101373.46
2024-03-07T00:22:19.550Z,101372.83
2024-03-07T00:27:22.132Z,101370.63
2024-03-07T00:32:24.709Z,101367.72
2024-03-07T00:37:27.212Z,101369.09
2024-03-07T00:42:30.164Z,101368.81
2024-03-07T00:47:33.355Z,101369.59
2024-03-07T00:52:36.012Z,101375.08
2024-03-07T00:57:39.235Z,101374.38
2024-03-07T01:02:45.395Z,101374.19
2024-03-07T01:07:48.355Z,101373.74
2024-03-07T01:12:51.171Z,101369.52
2024-03-07T01:17:53.873Z,101368.83
2024-03-07T01:22:57.856Z,101369.41
2024-03-07T01:28:01.817Z,101367.92
2024-03-07T01:33:04.816Z,101365.40
2024-03-07T01:38:09.524Z,101363.84
2024-03-07T01:43:12.360Z,101366.83
2024-03-07T01:48:22.579Z,101367.59
2024-03-07T01:53:26.878Z,101363.60
2024-03-07T01:58:31.298Z,101365.48
2024-03-07T02:03:34.121Z,101364.65
2024-03-07T02:08:36.788Z,101359.75
2024-03-07T02:13:39.312Z,101361.20
2024-03-07T02:18:41.812Z,101356.39
2024-03-07T02:23:44.830Z,101357.09
2024-03-07T02:28:47.338Z,101353.18
2024-03-07T02:33:49.849Z,101349.86
2024-03-07T02:38:52.402Z,101351.02
2024-03-07T02:43:54.930Z,101347.45
2024-03-07T02:48:57.356Z,101347.86
2024-03-07T02:53:59.956Z,101348.79
2024-03-07T02:59:04.910Z,101353.85
2024-03-07T03:04:07.672Z,101355.29
2024-03-07T03:09:14.179Z,101359.17
2024-03-07T03:14:16.678Z,101355.93
2024-03-07T03:19:19.260Z,101355.61
2024-03-07T03:24:22.133Z,101355.79
2024-03-07T03:29:24.635Z,101357.61
2024-03-07T03:34:27.774Z,101353.58
2024-03-07T03:39:30.239Z,101350.34
2024-03-07T03:44:32.727Z,101350.05
2024-03-07T03:49:35.200Z,101351.13
2024-03-07T03:54:37.647Z,101351.55
2024-03-07T03:59:45.739Z,101359.39
2024-03-07T04:04:49.074Z,101364.03
2024-03-07T04:09:51.633Z,101366.14
2024-03-07T04:14:55.935Z,101365.23
2024-03-07T04:19:59.534Z,101365.73
2024-03-07T04:25:05.783Z,101367.96
2024-03-07T04:30:12.115Z,101367.77
2024-03-07T04:35:17.139Z,101366.58
2024-03-07T04:40:23.029Z,101366.73
2024-03-07T04:45:25.609Z,101368.74
2024-03-07T04:50:28.178Z,101367.79
2024-03-07T04:55:31.354Z,101371.23
2024-03-07T05:00:33.791Z,101370.27
2024-03-07T05:05:36.340Z,101370.59
2024-03-07T05:10:38.901Z,101370.04
2024-03-07T05:15:41.417Z,101369.10
2024-03-07T05:20:43.869Z,101369.83
2024-03-07T05:25:47.234Z,101370.37
2024-03-07T05:30:50.435Z,101371.43
2024-03-07T05:36:03.873Z,101369.64
2024-03-07T05:41:06.446Z,101370.14
2024-03-07T05:46:10.969Z,101370.85
2024-03-07T05:51:13.669Z,101369.58
2024-03-07T05:56:17.419Z,101367.84
2024-03-07T06:01:19.868Z,101371.47
2024-03-07T06:06:22.732Z,101370.50
2024-03-07T06:11:26.402Z,101372.03
2024-03-07T06:16:33.707Z,101370.39
2024-03-07T06:21:38.154Z,101373.48
2024-03-07T06:27:00.613Z,101373.98
2024-03-07T06:32:03.458Z,101375.86
2024-03-07T06:37:06.524Z,101377.74
2024-03-07T06:42:08.996Z,101380.29
2024-03-07T06:47:11.742Z,101380.92
2024-03-07T06:52:14.286Z,101383.39
2024-03-07T06:57:18.391Z,101385.41
2024-03-07T07:02:20.924Z,101382.15
2024-03-07T07:07:23.465Z,101384.28
2024-03-07T07:12:25.976Z,101382.89
2024-03-07T07:17:30.069Z,101388.29
2024-03-07T07:22:36.018Z,101386.76
2024-03-07T07:27:38.671Z,101381.98
2024-03-07T07:32:42.471Z,101384.33
2024-03-07T07:37:49.142Z,101387.04
2024-03-07T07:42:53.266Z,101384.92
2024-03-07T07:47:56.400Z,101386.02
2024-03-07T07:52:59.990Z,101390.21
2024-03-07T07:58:05.271Z,101396.48
2024-03-07T08:03:07.930Z,101394.58
2024-03-07T08:08:18.017Z,101389.19
2024-03-07T08:13:21.194Z,101389.55
2024-03-07T08:18:24.295Z,101385.94
2024-03-07T08:23:27.991Z,101389.95
2024-03-07T08:28:31.253Z,101387.22
2024-03-07T08:33:40.643Z,101386.23
2024-03-07T08:38:44.615Z,101386.82
2024-03-07T08:43:47.065Z,101384.98
2024-03-07T08:48:49.956Z,101385.17
2024-03-07T08:53:52.452Z,101382.63
2024-03-07T08:58:54.977Z,101376.61
2024-03-07T09:04:00.259Z,101376.35
2024-03-07T09:09:03.588Z,101372.95
2024-03-07T09:14:10.690Z,101369.23
2024-03-07T09:19:14.945Z,101369.92
2024-03-07T09:24:17.521Z,101369.92
2024-03-07T09:29:20.541Z,101368.61
2024-03-07T09:34:23.032Z,101366.59
2024-03-07T09:39:25.613Z,101365.14
2024-03-07T09:44:29.419Z,101361.98
2024-03-07T09:49:34.746Z,101360.60
2024-03-07T09:54:37.919Z,101361.84
2024-03-07T09:59:45.469Z,101366.13
2024-03-07T10:04:55.838Z,101362.46
2024-03-07T10:10:00.407Z,101364.67
2024-03-07T10:15:04.367Z,101357.66
2024-03-07T10:20:10.808Z,101358.75
2024-03-07T10:25:13.388Z,101359.17
2024-03-07T10:30:21.582Z,101354.34
2024-03-07T10:35:27.999Z,101355.08
2024-03-07T10:40:31.184Z,101350.35
2024-03-07T10:45:36.658Z,101341.54
2024-03-07T10:51:07.948Z,101341.39
2024-03-07T10:56:32.807Z,101339.64
2024-03-07T11:01:44.416Z,101341.67
2024-03-07T11:06:46.865Z,101338.33
2024-03-07T11:11:50.133Z,101337.88
2024-03-07T11:16:53.021Z,101332.40
2024-03-07T11:21:57.266Z,101332.27
2024-03-07T11:27:03.752Z,101328.90
2024-03-07T11:32:07.761Z,101323.39
2024-03-07T11:37:26.326Z,101320.02
2024-03-07T11:42:34.145Z,101321.23
2024-03-07T11:47:39.876Z,101314.89
2024-03-07T11:52:45.168Z,101306.16
2024-03-07T11:57:48.608Z,101305.55
2024-03-07T12:02:51.093Z,101296.10
2024-03-07T12:07:54.839Z,101293.98
2024-03-07T12:12:57.647Z,101287.02
2024-03-07T12:18:04.401Z,101282.36
2024-03-07T12:23:08.967Z,101279.68
2024-03-07T12:28:18.746Z,101275.25
2024-03-07T12:33:26.158Z,101274.75
2024-03-07T12:38:36.735Z,101272.47
2024-03-07T12:43:39.548Z,101268.50
2024-03-07T12:48:42.451Z,101267.58
2024-03-07T12:53:45.326Z,101264.32
2024-03-07T12:58:50.166Z,101258.61
2024-03-07T13:03:52.624Z,101246.65
2024-03-07T13:08:55.147Z,101239.14
2024-03-07T13:13:57.908Z,101243.91
2024-03-07T13:19:00.575Z,101241.72
2024-03-07T13:24:03.467Z,101239.15
2024-03-07T13:29:06.112Z,101230.98
2024-03-07T13:34:13.981Z,101228.25
2024-03-07T13:39:16.994Z,101222.95
2024-03-07T13:44:20.543Z,101220.25
2024-03-07T13:49:24.814Z,101223.05
2024-03-07T13:54:33.459Z,101221.17
2024-03-07T14:00:15.448Z,101217.06
2024-03-07T14:05:41.392Z,101216.78
2024-03-07T14:10:57.254Z,101209.95
2024-03-07T14:16:21.710Z,101202.83
2024-03-07T14:21:50.951Z,101198.83
2024-03-07T14:27:25.710Z,101191.31
2024-03-07T14:32:28.212Z,101189.17
2024-03-07T14:37:39.078Z,101190.11
2024-03-07T14:42:46.252Z,101192.97
2024-03-07T14:47:53.350Z,101186.91
2024-03-07T14:52:55.910Z,101182.41
2024-03-07T14:57:59.858Z,101184.54
2024-03-07T15:03:03.349Z,101180.38
2024-03-07T15:08:06.242Z,101178.41
2024-03-07T15:13:11.178Z,101177.45
2024-03-07T15:18:13.891Z,101175.29
2024-03-07T15:23:16.474Z,101170.45
2024-03-07T15:28:18.974Z,101171.48
2024-03-07T15:33:23.706Z,101169.85
2024-03-07T15:38:26.988Z,101162.34
2024-03-07T15:43:29.477Z,101162.20
2024-03-07T15:48:32.276Z,101163.23
2024-03-07T15:53:36.726Z,101166.58
2024-03-07T15:58:39.446Z,101171.64
2024-03-07T16:03:43.490Z,101172.34
2024-03-07T16:08:46.434Z,101176.80
2024-03-07T16:13:48.918Z,101177.96
2024-03-07T16:18:53.162Z,101177.89
2024-03-07T16:23:57.455Z,101175.45
2024-03-07T16:29:00.007Z,101173.71
2024-03-07T16:34:03.688Z,101175.84
2024-03-07T16:39:12.868Z,101173.20
2024-03-07T16:44:15.422Z,101168.02
2024-03-07T16:49:18.050Z,101168.60
2024-03-07T16:54:20.575Z,101166.14
2024-03-07T16:59:24.103Z,101160.41
2024-03-07T17:04:27.635Z,101166.05
2024-03-07T17:09:30.766Z,101164.82
2024-03-07T17:14:36.024Z,101164.91
2024-03-07T17:19:39.185Z,101165.55
2024-03-07T17:24:42.466Z,101165.02
2024-03-07T17:29:47.379Z,101160.04
2024-03-07T17:34:49.926Z,101161.14
2024-03-07T17:39:54.796Z,101160.89
2024-03-07T17:44:57.306Z,101164.08
2024-03-07T17:50:03.981Z,101167.38
2024-03-07T17:55:09.602Z,101168.86
2024-03-07T18:00:27.425Z,101168.08
2024-03-07T18:05:30.676Z,101164.55
2024-03-07T18:10:36.910Z,101164.02
2024-03-07T18:15:40.520Z,101160.67
2024-03-07T18:20:45.752Z,101158.84
2024-03-07T18:25:50.832Z,101158.16
2024-03-07T18:30:54.191Z,101159.16
2024-03-07T18:35:57.218Z,101156.73
2024-03-07T18:40:59.748Z,101153.98
2024-03-07T18:46:04.265Z,101153.14
2024-03-07T18:51:06.960Z,101152.54
2024-03-07T18:56:12.516Z,101154.64
2024-03-07T19:01:15.315Z,101157.26
2024-03-07T19:06:17.871Z,101158.52
2024-03-07T19:11:20.637Z,101165.52
2024-03-07T19:16:23.097Z,101165.08
2024-03-07T19:21:26.062Z,101162.67
2024-03-07T19:26:30.082Z,101163.98
2024-03-07T19:31:35.285Z,101169.75
2024-03-07T19:36:39.983Z,101169.42
2024-03-07T19:41:58.635Z,101173.11
2024-03-07T19:47:08.607Z,101171.36
2024-03-07T19:52:11.630Z,101167.24
2024-03-07T19:57:14.315Z,101165.06
2024-03-07T20:02:16.798Z,101161.77
2024-03-07T20:07:19.246Z,101162.36
2024-03-07T20:12:21.798Z,101157.35
2024-03-07T20:17:31.414Z,101155.30
2024-03-07T20:22:34.511Z,101155.61
2024-03-07T20:27:36.967Z,101158.41
2024-03-07T20:32:39.525Z,101157.86
2024-03-07T20:37:42.041Z,101151.65
2024-03-07T20:42:49.085Z,101150.22
2024-03-07T20:47:52.081Z,101147.89
2024-03-07T20:52:54.956Z,101149.38
2024-03-07T20:57:59.300Z,101152.46
2024-03-07T21:03:05.093Z,101151.98
2024-03-07T21:08:13.175Z,101150.23
2024-03-07T21:13:17.933Z,101148.83
2024-03-07T21:18:21.153Z,101147.74
2024-03-07T21:23:25.426Z,101149.84
2024-03-07T21:28:28.498Z,101153.29
2024-03-07T21:33:32.416Z,101152.50
2024-03-07T21:38:35.997Z,101153.67
2024-03-07T21:43:38.531Z,101150.81
2024-03-07T21:48:42.387Z,101147.85
2024-03-07T21:53:54.414Z,101146.23
2024-03-07T21:58:59.000Z,101145.10
2024-03-07T22:04:01.462Z,101144.71
2024-03-07T22:09:11.255Z,101146.13
2024-03-07T22:14:17.180Z,101148.75
2024-03-07T22:19:19.900Z,101148.54
2024-03-07T22:24:22.390Z,101143.25
2024-03-07T22:29:25.388Z,101142.15
2024-03-07T22:34:30.133Z,101140.36
2024-03-07T22:39:33.247Z,101140.09
2024-03-07T22:44:35.889Z,101139.65
2024-03-07T22:49:41.235Z,101139.98
2024-03-07T22:54:44.435Z,101143.80
2024-03-07T22:59:47.665Z,101143.91
2024-03-07T23:04:50.241Z,101138.63
2024-03-07T23:09:53.822Z,101138.02
2024-03-07T23:14:56.595Z,101137.45
2024-03-07T23:19:59.125Z,101141.59
2024-03-07T23:25:03.139Z,101142.09
2024-03-07T23:30:06.852Z,101135.86
2024-03-07T23:35:09.631Z,101137.11
2024-03-07T23:40:15.578Z,101134.45
2024-03-07T23:45:18.265Z,101132.61
2024-03-07T23:50:21.098Z,101129.70
2024-03-07T23:55:24.409Z,101123.92
